createdAt,value
2022-08-26T00:08:56.966Z,13907.57422
2022-08-26T00:23:59.192Z,4418.97607
2022-08-26T00:39:01.925Z,12958.71484
2022-08-26T00:54:05.346Z,6913.12158
2022-08-26T01:09:07.768Z,2628.61279
2022-08-26T01:24:10.320Z,1662.40247
2022-08-26T01:39:12.613Z,2019.17383
2022-08-26T01:54:14.856Z,2027.84912
2022-08-26T02:09:17.057Z,1329.48816
2022-08-26T02:24:19.233Z,855.60046
2022-08-26T02:39:22.289Z,98.68143
2022-08-26T02:54:24.692Z,23.85705
2022-08-26T03:09:26.873Z,3.25323
2022-08-26T03:24:29.184Z,0
2022-08-26T03:39:32.578Z,0
2022-08-26T03:54:34.865Z,0
2022-08-26T04:09:37.159Z,0
2022-08-26T04:24:39.673Z,0
2022-08-26T04:39:41.920Z,0
2022-08-26T04:54:44.146Z,0
2022-08-26T05:09:46.352Z,0
2022-08-26T05:24:48.541Z,0
2022-08-26T05:39:51.343Z,0
2022-08-26T05:54:53.790Z,0
2022-08-26T06:10:15.172Z,0
2022-08-26T06:25:31.060Z,0
2022-08-26T06:40:33.482Z,0
2022-08-26T06:55:37.408Z,0
2022-08-26T07:10:39.642Z,0
2022-08-26T07:25:42.177Z,0
2022-08-26T07:40:45.711Z,0
2022-08-26T07:55:47.895Z,0
2022-08-26T08:10:50.095Z,0
2022-08-26T08:25:52.317Z,0
2022-08-26T08:40:54.548Z,0
2022-08-26T08:55:56.754Z,0
2022-08-26T09:10:59.136Z,0
2022-08-26T09:26:01.360Z,0
2022-08-26T09:41:03.545Z,0
2022-08-26T09:56:07.451Z,0
2022-08-26T10:11:10.875Z,0
2022-08-26T10:26:13.106Z,0
2022-08-26T10:41:15.878Z,0
2022-08-26T10:56:19.441Z,0
2022-08-26T11:11:21.653Z,0
2022-08-26T11:26:36.259Z,0
2022-08-26T11:41:58.206Z,0
2022-08-26T11:57:02.870Z,0
2022-08-26T12:12:12.111Z,0
2022-08-26T12:27:14.455Z,0
2022-08-26T12:42:16.681Z,7.59088
2022-08-26T12:57:18.886Z,50.96733
2022-08-26T13:12:21.133Z,146.39552
2022-08-26T13:27:23.323Z,323.15457
2022-08-26T13:42:25.538Z,533.53033
2022-08-26T13:57:27.739Z,793.78906
2022-08-26T14:12:29.998Z,1872.7782
2022-08-26T14:27:32.235Z,19435.90234
2022-08-26T14:42:34.618Z,2542.94434
2022-08-26T14:57:36.848Z,4502.47559
2022-08-26T15:12:39.105Z,7537.74268
2022-08-26T15:27:41.327Z,6250.54639
2022-08-26T15:42:43.581Z,5516.3999
2022-08-26T15:57:49.837Z,5327.7124
2022-08-26T16:12:52.187Z,6405.61719
2022-08-26T16:27:54.387Z,4359.3335
2022-08-26T16:42:56.651Z,2961.5271
2022-08-26T16:57:58.850Z,2984.2998
2022-08-26T17:13:01.418Z,3303.1167
2022-08-26T17:28:03.619Z,4138.11328
2022-08-26T17:43:11.680Z,6876.25195
2022-08-26T17:58:14.931Z,4433.07324
2022-08-26T18:13:17.198Z,3039.60474
2022-08-26T18:28:19.416Z,5580.38037
2022-08-26T18:43:21.617Z,7339.29541
2022-08-26T18:58:23.855Z,4696.58496
2022-08-26T19:13:26.091Z,7510.63232
2022-08-26T19:28:28.315Z,7276.39941
2022-08-26T19:43:30.523Z,7633.1709
2022-08-26T19:58:34.436Z,7642.93066
2022-08-26T20:13:36.700Z,7680.88477
2022-08-26T20:28:39.013Z,8608.05664
2022-08-26T20:43:41.243Z,2407.39307
2022-08-26T20:58:43.479Z,2921.40405
2022-08-26T21:14:03.910Z,3230.46118
2022-08-26T21:29:06.963Z,6920.71289
2022-08-26T21:44:09.227Z,3660.97241
2022-08-26T21:59:11.483Z,3818.21216
2022-08-26T22:14:13.674Z,3123.10449
2022-08-26T22:29:15.873Z,11370.05176
2022-08-26T22:44:18.269Z,12112.87402
2022-08-26T22:59:20.527Z,13199.4541
2022-08-26T23:14:22.841Z,3300.948
2022-08-26T23:29:25.078Z,4578.38428
2022-08-26T23:44:27.528Z,13361.03125
2022-08-26T23:59:29.757Z,14193.85938
